Latest Coastal Weather Observations for Cape Grim

IDT60701

Issued at 3:05 pm EDT Monday 24 November 2014 (issued every 10 minutes, with the page automatically refreshed every 10 minutes)

About coastal observations | Map of coastal stations | Coastal observations for TAS | Marine services | Other Formats
Station Details ID: 091331 Name: CAPE GRIM Lat: -40.68 Lon: 144.69 Height: 86.0 m
Data from the previous 72 hours. | See also: Recent months at Cape Grim
Date/Time
EDT
Temp

°C
Wind Pressure Rain
since 9am
mm
Weather Cloud Vis
km
Sea
Height
m
Swell
Dir
 
Speed
knots
Gust
knots
hPa Trend Height
m
Period
s
Dir
24/03:00pm 13.1 WSW 6 9 1005.9 - 1.2 Recent precip. Cloudy - - - - -
24/02:47pm 13.4 W 6 14 1005.8 - 1.2 - Partly cloudy - - - - -
24/02:30pm 14.3 CALM 0 2 1006.0 - 1.0 - Partly cloudy - - - - -
24/02:00pm 14.4 ENE 6 8 1006.3 - 1.0 - Partly cloudy - - - - -
24/01:30pm 14.6 ENE 9 11 1006.6 - 1.0 - Partly cloudy - - - - -
24/01:00pm 15.1 ENE 13 17 1006.9 - 1.0 - Partly cloudy - - - - -
24/12:30pm 14.9 ENE 14 17 1006.8 - 1.0 - Partly cloudy - - - - -
24/12:00pm 15.3 ENE 12 14 1007.1 - 1.0 - Mostly cloudy - - - - -
24/11:30am 15.3 ENE 11 13 1007.3 - 1.0 - Partly cloudy - - - - -
24/11:00am 14.4 ENE 10 12 1008.3 - 1.0 - Partly cloudy - - - - -
24/10:30am 14.0 NE 12 14 1009.5 - 0.6 - Partly cloudy - - - - -
24/10:00am 14.4 ENE 15 19 1009.0 - 0.2 - Partly cloudy - - - - -
24/09:30am 14.6 NE 13 17 1008.9 - 0.2 - Partly cloudy - - - - -
24/09:00am 14.4 NNE 11 14 1010.2 - 1.4 - Cloudy - - - - -
24/08:30am 14.2 ENE 11 14 1008.6 - 1.4 - Partly cloudy - - - - -
24/08:00am 13.8 ENE 11 13 1009.1 - 1.4 - Partly cloudy - - - - -
24/07:30am 13.6 NE 9 12 1009.5 - 0.8 - Partly cloudy - - - - -
24/07:00am 13.4 NE 10 12 1009.2 - 0.8 - Cloudy - - - - -
24/06:30am 13.5 NE 9 10 1009.5 - 0.8 - Partly cloudy - - - - -
24/06:00am 13.7 NE 12 13 1009.2 - 0.4 Rain Mostly cloudy - - - - -
24/05:30am 13.6 NNE 8 10 1008.6 - 0.2 - Cloudy - - - - -
24/05:00am 13.7 NNE 11 13 1009.2 - 0.2 - Cloudy - - - - -
24/04:30am 13.9 NNE 12 15 1009.0 - 0.2 - Partly cloudy - - - - -
24/04:29am 13.9 NNE 12 15 1009.1 - 0.2 - Partly cloudy - - - - -
24/04:00am 13.9 NNE 12 15 1009.9 - 0.2 - Partly cloudy - - - - -
24/03:58am 13.9 NNE 12 15 1009.9 - 0.2 - Partly cloudy - - - - -
24/03:50am 13.9 N 12 15 1010.0 - 0.2 - Partly cloudy - - - - -
24/03:30am 13.9 N 15 17 1010.4 - 0.2 - Partly cloudy - - - - -
24/03:02am 13.5 NNE 13 16 1011.0 - 0.0 - Partly cloudy - - - - -
24/03:00am 13.3 NNE 13 16 1011.0 - 0.0 - Cloudy - - - - -
24/02:30am 13.0 NNE 11 14 1011.3 - 0.0 - Partly cloudy - - - - -
24/02:00am 12.9 NNE 14 16 1011.3 - 0.0 - - - - - - -
24/01:30am 12.1 NNE 10 13 1011.6 - 0.0 - - - - - - -
24/01:00am 12.2 NNE 11 12 1012.0 - 0.0 - - - - - - -
24/12:30am 12.2 NNE 10 11 1012.2 - 0.0 - - - - - - -
24/12:00am 11.8 NE 7 7 1012.3 - 0.0 - - - - - - -
 
Date/Time
EDT
Temp

°C
Wind Pressure Rain
since 9am
mm
Weather Cloud Vis
km
Sea
Height
m
Swell
Dir
 
Speed
knots
Gust
knots
hPa Trend Height
m
Period
s
Dir
23/11:30pm 11.7 E 7 7 1012.1 - 0.0 - - - - - - -
23/11:00pm 13.3 WSW 1 3 1012.5 - 0.0 - - - - - - -
23/10:30pm 13.1 WNW 5 6 1012.9 - 0.0 - - - - - - -
23/10:00pm 13.2 WNW 4 5 1013.0 - 0.0 - - - - - - -
23/09:30pm 13.4 WNW 3 4 1012.9 - 0.0 - - - - - - -
23/09:00pm 13.3 WNW 3 4 1012.9 - 0.0 - - - - - - -
23/08:30pm 13.4 NNW 5 7 1013.1 - 0.0 - - - - - - -
23/08:00pm 13.8 WNW 6 8 1013.2 - 0.0 - - - - - - -
23/07:30pm 14.5 WNW 7 9 1013.0 - 0.0 - - - - - - -
23/07:00pm 15.0 W 8 9 1013.0 - 0.0 - - - - - - -
23/06:30pm 15.4 W 7 8 1012.9 - 0.0 - - - - - - -
23/06:00pm 15.6 W 7 10 1012.6 - 0.0 - - - - - - -
23/05:30pm 15.8 W 7 9 1012.4 - 0.0 - - - - - - -
23/05:00pm 16.1 W 7 10 1012.5 - 0.0 - - - - - - -
23/04:30pm 16.3 W 7 9 1012.2 - 0.0 - - - - - - -
23/04:00pm 15.9 W 8 12 1012.1 - 0.0 - - - - - - -
23/03:30pm 15.5 W 9 13 1011.9 - 0.0 - - - - - - -
23/03:00pm 15.4 W 9 13 1011.7 - 0.0 - - - - - - -
23/02:30pm 16.0 W 9 13 1011.7 - 0.0 - - - - - - -
23/02:00pm 15.5 W 9 13 1011.7 - 0.0 - - - - - - -
23/01:30pm 15.5 W 8 12 1012.0 - 0.0 - - - - - - -
23/01:00pm 16.0 W 8 10 1012.0 - 0.0 - - - - - - -
23/12:30pm 15.7 W 8 11 1012.2 - 0.0 - Partly cloudy - - - - -
23/12:00pm 15.6 W 8 11 1012.3 - 0.0 - - - - - - -
23/11:30am 15.3 W 9 11 1012.3 - 0.0 - - - - - - -
23/11:00am 15.3 W 9 12 1012.1 - 0.0 - - - - - - -
23/10:30am 15.1 W 8 11 1012.1 - 0.0 - - - - - - -
23/10:00am 14.7 W 8 11 1011.9 - 0.0 - - - - - - -
23/09:30am 14.8 W 8 11 1011.9 - 0.0 - - - - - - -
23/09:00am 14.5 W 8 12 1011.6 - 0.4 - - - - - - -
23/08:30am 14.0 W 8 11 1011.2 - 0.4 - - - - - - -
23/08:00am 13.9 W 9 14 1010.9 - 0.4 - - - - - - -
23/07:30am 13.5 W 7 12 1010.5 - 0.4 - - - - - - -
23/07:00am 13.3 WSW 9 16 1010.1 - 0.4 - - - - - - -
23/06:30am 13.1 WSW 10 18 1009.8 - 0.4 - - - - - - -
23/06:00am 13.1 W 11 19 1009.4 - 0.4 - - - - - - -
23/05:30am 12.9 W 12 20 1008.9 - 0.4 - - - - - - -
23/05:00am 13.1 W 11 19 1008.5 - 0.4 - - - - - - -
23/04:30am 13.1 W 10 17 1008.2 - 0.4 - - - - - - -
23/04:00am 13.1 W 11 19 1007.8 - 0.4 - - - - - - -
23/03:43am 13.2 W 11 20 1007.7 - 0.4 - Partly cloudy - - - - -
23/03:30am 13.1 W 11 21 1007.7 - 0.4 - Partly cloudy - - - - -
23/03:00am 13.3 WSW 11 18 1007.6 - 0.4 - Cloudy - - - - -
23/02:30am 13.3 SW 9 15 1007.6 - 0.4 - Partly cloudy - - - - -
23/02:00am 13.5 W 11 18 1007.6 - 0.4 - Cloudy - - - - -
23/01:30am 13.2 WSW 12 18 1007.7 - 0.4 - Partly cloudy - - - - -
23/01:00am 13.3 W 13 21 1007.6 - 0.4 - Cloudy - - - - -
23/12:30am 13.9 SW 12 19 1007.2 - 0.4 - Cloudy - - - - -
23/12:00am 14.0 WSW 10 19 1007.0 - 0.4 - Mostly cloudy - - - - -
 
Date/Time
EDT
Temp

°C
Wind Pressure Rain
since 9am
mm
Weather Cloud Vis
km
Sea
Height
m
Swell
Dir
 
Speed
knots
Gust
knots
hPa Trend Height
m
Period
s
Dir
22/11:45pm 14.1 WSW 8 12 1006.9 - 0.4 - Partly cloudy - - - - -
22/11:30pm 14.0 W 12 16 1006.9 - 0.4 - - - - - - -
22/11:00pm 14.1 WNW 8 11 1006.9 - 0.4 - - - - - - -
22/10:30pm 13.7 ENE 5 7 1006.6 - 0.4 - - - - - - -
22/10:00pm 13.6 ENE 9 11 1006.1 - 0.4 - Partly cloudy - - - - -
22/09:30pm 14.3 ENE 10 12 1005.8 - 0.4 - Cloudy - - - - -
22/09:00pm 14.2 ENE 11 13 1005.4 - 0.4 - Cloudy - - - - -
22/08:30pm 14.9 ENE 12 14 1005.2 - 0.4 - Partly cloudy - - - - -
22/08:00pm 15.0 E 12 14 1005.0 - 0.4 - Partly cloudy - - - - -
22/07:30pm 15.3 E 13 15 1004.8 - 0.4 - Partly cloudy - - - - -
22/07:00pm 15.7 ENE 13 16 1004.9 - 0.4 - Partly cloudy - - - - -
22/06:30pm 16.7 ENE 13 16 1004.9 - 0.4 - Partly cloudy - - - - -
22/06:00pm 16.3 ENE 14 16 1004.9 - 0.4 - Cloudy - - - - -
22/05:30pm 16.0 E 15 18 1005.0 - 0.4 - Partly cloudy - - - - -
22/05:00pm 16.4 ENE 17 19 1005.0 - 0.4 - Partly cloudy - - - - -
22/04:30pm 17.0 ENE 16 19 1005.2 - 0.4 - Partly cloudy - - - - -
22/04:00pm 17.4 ENE 18 21 1005.3 - 0.4 - Partly cloudy - - - - -
22/03:30pm 16.9 ENE 17 21 1005.4 - 0.4 - Partly cloudy - - - - -
22/03:00pm 17.0 ENE 16 20 1006.1 - 0.4 - Cloudy - - - - -
22/02:30pm 16.0 ENE 15 18 1006.4 - 0.4 - Partly cloudy - - - - -
22/02:00pm 14.5 ENE 14 17 1007.2 - 0.4 - Partly cloudy - - - - -
22/01:30pm 14.9 NE 15 19 1008.1 - 0.0 - Partly cloudy - - - - -
22/01:00pm 14.8 ENE 18 21 1007.9 - 0.0 - Cloudy - - - - -
22/12:30pm 14.8 ENE 19 23 1007.6 - 0.0 - Partly cloudy - - - - -
22/12:00pm 14.9 ENE 18 22 1007.9 - 0.0 - Mostly cloudy - - - - -
22/11:30am 14.6 NE 19 23 1008.3 - 0.0 - Cloudy - - - - -
22/11:00am 15.1 ENE 17 23 1007.9 - 0.0 - Partly cloudy - - - - -
22/10:30am 15.3 ENE 16 19 1008.0 - 0.0 - Partly cloudy - - - - -
22/10:00am 14.9 NE 15 19 1008.6 - 0.0 - Partly cloudy - - - - -
22/09:30am 14.5 NE 17 21 1008.6 - 0.0 - Partly cloudy - - - - -
22/09:00am 13.8 NE 14 16 1009.1 - 0.6 - Cloudy - - - - -
22/08:30am 13.7 NE 10 13 1009.0 - 0.6 - Cloudy - - - - -
22/08:00am 13.3 NNE 10 14 1009.5 - 0.6 - Partly cloudy - - - - -
22/07:30am 13.6 N 11 13 1009.4 - 0.6 - Cloudy - - - - -
22/07:00am 13.3 N 12 15 1009.6 - 0.6 - Partly cloudy - - - - -
22/06:30am 13.0 N 13 16 1009.6 - 0.6 - Cloudy - - - - -
22/06:00am 13.1 NNW 15 19 1010.0 - 0.4 Recent precip. Cloudy - - - - -
22/05:30am 13.1 NNW 17 21 1010.3 - 0.0 - Partly cloudy - - - - -
22/05:00am 13.3 NNW 15 18 1010.0 - 0.0 - Cloudy - - - - -
22/04:30am 13.0 N 13 18 1009.5 - 0.0 - Partly cloudy - - - - -
22/04:00am 12.7 N 15 19 1009.0 - 0.0 - Partly cloudy - - - - -
22/03:30am 11.9 NNE 15 18 1008.9 - 0.0 - - - - - - -
22/03:00am 11.8 NNE 17 20 1008.5 - 0.0 - Mostly clear - - - - -
22/02:30am 11.4 NNE 15 17 1009.0 - 0.0 - - - - - - -
22/02:00am 11.2 NNE 13 16 1009.2 - 0.0 - - - - - - -
22/01:30am 11.3 NNE 13 15 1009.8 - 0.0 - - - - - - -
22/01:00am 11.0 NNE 12 13 1010.2 - 0.0 - - - - - - -
22/12:30am 10.6 NNE 10 12 1010.7 - 0.0 - - - - - - -
22/12:00am 10.9 NNE 11 12 1011.0 - 0.0 - - - - - - -
 
Date/Time
EDT
Temp

°C
Wind Pressure Rain
since 9am
mm
Weather Cloud Vis
km
Sea
Height
m
Swell
Dir
 
Speed
knots
Gust
knots
hPa Trend Height
m
Period
s
Dir
21/11:30pm 11.2 N 10 11 1011.3 - 0.0 - - - - - - -
21/11:00pm 11.1 N 8 10 1011.6 - 0.0 - - - - - - -
21/10:30pm 11.6 N 7 8 1011.8 - 0.0 - - - - - - -
21/10:00pm 12.2 NW 9 11 1012.2 - 0.0 - - - - - - -
21/09:30pm 12.2 WNW 10 13 1012.3 - 0.0 - - - - - - -
21/09:00pm 12.2 W 10 11 1011.6 - 0.0 - - - - - - -
21/08:30pm 12.3 W 10 13 1011.5 - 0.0 - - - - - - -
21/08:00pm 12.8 WNW 10 14 1011.5 - 0.0 - Partly cloudy - - - - -
21/07:30pm 13.1 W 11 15 1011.2 - 0.0 - - - - - - -
21/07:00pm 13.5 W 10 13 1011.0 - 0.0 - - - - - - -
21/06:30pm 13.3 W 8 13 1010.7 - 0.0 - - - - - - -
21/06:00pm 13.4 W 9 13 1010.5 - 0.0 - - - - - - -
21/05:30pm 13.6 W 10 13 1010.3 - 0.0 - - - - - - -
21/05:00pm 13.4 W 9 13 1010.2 - 0.0 - - - - - - -
21/04:30pm 13.3 W 10 15 1010.2 - 0.0 - Partly cloudy - - - - -
21/04:00pm 13.4 W 10 15 1010.3 - 0.0 - - - - - - -
21/03:30pm 13.4 W 10 16 1010.2 - 0.0 - - - - - - -

Other Formats:

Comma delimited format used in spreadsheet applications
http://www.bom.gov.au/fwo/IDT60701/IDT60701.95954.axf

JavaScript Object Notation format (JSON) in row-major order
http://www.bom.gov.au/fwo/IDT60701/IDT60701.95954.json